Time;durP1;ratioP1;P1;durP2;ratioP2;P2;SDS_P1;SDS_P2;PMS_P1;PMS_P2;Temp;Humidity;BMP_temperature;BMP_pressure;BME280_temperature;BME280_humidity;BME280_pressure;Samples;Min_cycle;Max_cycle;Signal;HPM_P1;HPM_P2
2022/12/17 13:07:48;;;;;;;44.70;17.70;;;;;;;-0.89;83.75;102544.97;5026599;28;20099;-75
2022/12/17 13:10:30;;;;;;;47.13;17.83;;;;;;;-0.94;83.04;102542.16;5024804;28;20041;-75
2022/12/17 13:13:05;;;;;;;44.30;18.33;;;;;;;-0.95;83.73;102544.66;5025465;28;20047;-76
2022/12/17 13:15:36;;;;;;;48.37;20.93;;;;;;;-0.96;83.89;102537.78;5025945;28;20037;-77
2022/12/17 13:18:21;;;;;;;50.13;21.15;;;;;;;-0.98;83.78;102545.38;5027372;28;20195;-76
2022/12/17 13:21:21;;;;;;;46.33;18.07;;;;;;;-1.03;83.30;102538.28;5008389;28;20029;-77
2022/12/17 13:23:47;;;;;;;44.07;17.37;;;;;;;-1.10;83.13;102537.97;5026868;28;20033;-76
2022/12/17 13:26:28;;;;;;;44.70;17.87;;;;;;;-1.16;83.20;102530.00;5026666;28;20083;-77
2022/12/17 13:28:53;;;;;;;50.53;19.13;;;;;;;-1.24;83.21;102536.41;5023270;28;20029;-76
2022/12/17 13:31:25;;;;;;;48.10;19.30;;;;;;;-1.28;83.06;102537.06;5022403;28;20034;-77
2022/12/17 13:33:59;;;;;;;45.00;17.48;;;;;;;-1.30;83.51;102539.53;5022599;28;20025;-77
2022/12/17 13:36:33;;;;;;;45.67;17.53;;;;;;;-1.31;84.42;102534.34;5024744;28;20036;-77
2022/12/17 13:39:11;;;;;;;49.20;17.67;;;;;;;-1.31;83.96;102540.34;5023536;28;20048;-77
2022/12/17 13:41:37;;;;;;;43.97;17.43;;;;;;;-1.28;84.41;102534.50;5021244;28;20033;-77
2022/12/17 13:44:17;;;;;;;41.77;15.23;;;;;;;-1.26;83.77;102540.56;5021945;28;20088;-76
2022/12/17 13:46:45;;;;;;;47.80;16.83;;;;;;;-1.29;83.46;102545.50;5020608;28;20396;-75
2022/12/17 13:49:16;;;;;;;42.10;15.67;;;;;;;-1.31;83.42;102553.09;5021926;28;20044;-76
2022/12/17 13:51:41;;;;;;;45.80;16.65;;;;;;;-1.33;83.99;102549.59;5022003;28;20060;-76
2022/12/17 13:54:15;;;;;;;43.93;16.57;;;;;;;-1.34;83.81;102552.94;5022518;28;20480;-76
2022/12/17 13:56:40;;;;;;;39.30;14.73;;;;;;;-1.39;84.02;102556.94;5022234;28;20032;-76
2022/12/17 13:59:05;;;;;;;42.70;16.10;;;;;;;-1.41;83.55;102544.09;5023037;28;20388;-76
2022/12/17 14:01:31;;;;;;;41.93;15.77;;;;;;;-1.44;83.64;102549.03;5023345;28;20029;-76
2022/12/17 14:04:01;;;;;;;38.50;14.50;;;;;;;-1.52;83.93;102545.19;5002142;28;20846;-76
2022/12/17 14:06:33;;;;;;;40.20;15.50;;;;;;;-1.56;84.25;102549.28;5022772;28;20516;-76
2022/12/17 14:09:00;;;;;;;39.80;14.67;;;;;;;-1.60;83.82;102554.16;5022694;28;20729;-77
2022/12/17 14:14:30;;;;;;;43.60;15.57;;;;;;;-1.62;84.53;102559.16;5022343;28;20040;-77
2022/12/17 14:16:55;;;;;;;39.03;14.83;;;;;;;-1.61;84.47;102565.16;5023315;28;20025;-77
2022/12/17 14:19:23;;;;;;;35.57;13.70;;;;;;;-1.61;84.38;102555.81;5024604;28;20043;-77
2022/12/17 14:21:48;;;;;;;38.77;15.00;;;;;;;-1.59;84.20;102558.47;5024203;28;20124;-77
2022/12/17 14:24:17;;;;;;;37.60;15.03;;;;;;;-1.59;84.42;102563.56;5021439;28;20468;-76
2022/12/17 14:26:52;;;;;;;41.83;16.13;;;;;;;-1.59;84.62;102563.56;5021087;28;20041;-77
2022/12/17 14:29:23;;;;;;;38.97;14.80;;;;;;;-1.65;84.16;102559.03;5020925;28;20077;-77
2022/12/17 14:31:57;;;;;;;37.83;14.60;;;;;;;-1.70;83.81;102565.56;5022301;28;20025;-77
2022/12/17 14:34:22;;;;;;;38.50;14.93;;;;;;;-1.77;83.84;102564.34;5022016;28;20034;-75
2022/12/17 14:36:54;;;;;;;37.83;14.00;;;;;;;-1.80;84.11;102569.28;5022370;28;20040;-76
2022/12/17 14:39:24;;;;;;;;;;;;;;;-1.79;84.21;102565.94;5022781;28;20029;-77
2022/12/17 14:44:37;;;;;;;39.00;13.57;;;;;;;-1.86;84.36;102572.41;5024930;28;20139;-78
2022/12/17 14:47:12;;;;;;;40.50;14.27;;;;;;;-1.86;84.65;102581.69;5028485;28;20041;-76
2022/12/17 14:49:51;;;;;;;38.33;13.23;;;;;;;-1.86;84.34;102576.59;5029362;28;20033;-76
2022/12/17 14:52:24;;;;;;;36.77;13.57;;;;;;;-1.86;84.61;102574.03;5027500;28;20033;-76
2022/12/17 14:54:50;;;;;;;35.90;12.67;;;;;;;-1.83;85.11;102575.13;5027330;28;20056;-76
2022/12/17 14:57:20;;;;;;;37.90;14.23;;;;;;;-1.83;84.81;102579.31;5025873;28;20117;-76
2022/12/17 14:59:46;;;;;;;45.13;17.23;;;;;;;-1.85;84.72;102586.00;5025850;28;20072;-76
2022/12/17 15:02:17;;;;;;;42.80;15.50;;;;;;;-1.87;84.64;102585.03;5027133;28;20052;-77
2022/12/17 15:04:42;;;;;;;40.65;14.82;;;;;;;-1.92;84.79;102583.94;5026261;28;20472;-76
2022/12/17 15:07:13;;;;;;;40.47;14.83;;;;;;;-1.93;84.46;102600.03;5026455;28;20036;-75
2022/12/17 15:09:39;;;;;;;45.77;16.60;;;;;;;-1.97;84.95;102601.56;5024400;28;20021;-76
2022/12/17 15:12:04;;;;;;;37.77;15.17;;;;;;;-2.00;85.18;102594.59;5025213;28;20019;-76
2022/12/17 15:14:30;;;;;;;41.03;15.33;;;;;;;-2.02;84.98;102592.78;5027053;28;20040;-76
2022/12/17 15:16:57;;;;;;;38.30;14.53;;;;;;;-2.06;84.67;102596.84;5025148;28;20031;-76
2022/12/17 15:19:23;;;;;;;44.10;15.87;;;;;;;-2.09;85.61;102604.31;5005974;28;20030;-76
2022/12/17 15:21:48;;;;;;;40.30;14.53;;;;;;;-2.10;84.68;102609.31;5024410;28;20115;-76
2022/12/17 15:24:18;;;;;;;38.87;14.50;;;;;;;-2.10;85.27;102609.31;5024659;28;20021;-77
2022/12/17 15:26:44;;;;;;;39.20;14.57;;;;;;;-2.10;85.07;102610.19;5025622;28;20057;-76
2022/12/17 15:29:09;;;;;;;38.80;14.80;;;;;;;-2.11;85.09;102613.53;5024262;28;20445;-76
2022/12/17 15:31:34;;;;;;;43.10;15.90;;;;;;;-2.12;85.31;102611.78;5024374;28;20021;-76
2022/12/17 15:33:59;;;;;;;39.67;15.60;;;;;;;-2.13;85.05;102622.78;5023311;28;20036;-76
2022/12/17 15:36:25;;;;;;;39.53;14.67;;;;;;;-2.15;84.95;102621.81;5025453;28;20456;-76
2022/12/17 15:38:50;;;;;;;45.03;14.80;;;;;;;-2.17;84.67;102618.28;5024129;28;20029;-76
2022/12/17 15:43:59;;;;;;;37.20;14.07;;;;;;;-2.19;85.55;102628.41;5025343;28;20578;-76
2022/12/17 15:46:25;;;;;;;39.37;14.23;;;;;;;-2.21;85.39;102631.66;5014596;28;20029;-76
2022/12/17 15:48:50;;;;;;;38.50;13.20;;;;;;;-2.21;85.40;102632.56;5025019;28;20103;-76
2022/12/17 15:51:16;;;;;;;38.20;14.70;;;;;;;-2.20;85.48;102628.31;5027410;28;20075;-76
2022/12/17 15:53:41;;;;;;;38.33;14.53;;;;;;;-2.24;84.86;102632.38;5024964;28;20041;-77
2022/12/17 15:56:22;;;;;;;43.17;16.43;;;;;;;-2.25;85.34;102640.81;5024914;28;20029;-77
2022/12/17 15:58:47;;;;;;;39.43;14.77;;;;;;;-2.30;84.95;102643.09;5024057;28;20120;-76
2022/12/17 16:01:13;;;;;;;44.00;15.20;;;;;;;-2.34;85.33;102643.72;5024335;28;20112;-76
2022/12/17 16:03:38;;;;;;;38.17;13.90;;;;;;;-2.36;85.05;102642.75;5021826;28;20112;-77
2022/12/17 16:06:04;;;;;;;40.10;13.67;;;;;;;-2.36;84.71;102641.88;5023021;28;20064;-77
2022/12/17 16:08:29;;;;;;;41.07;14.37;;;;;;;-2.39;85.69;102637.47;5023136;28;20120;-76
2022/12/17 16:10:54;;;;;;;36.73;13.43;;;;;;;-2.38;84.82;102639.22;5024728;28;20025;-77
2022/12/17 16:13:20;;;;;;;39.53;13.37;;;;;;;-2.37;85.35;102640.13;5023494;28;20029;-76
2022/12/17 16:15:54;;;;;;;34.67;12.27;;;;;;;-2.38;85.53;102638.38;5021804;28;20037;-76
2022/12/17 16:18:21;;;;;;;40.70;13.63;;;;;;;-2.42;85.58;102642.44;5020269;28;20057;-76
2022/12/17 16:20:46;;;;;;;37.50;13.17;;;;;;;-2.43;85.73;102640.66;5024644;28;20025;-75
2022/12/17 16:23:12;;;;;;;38.17;13.43;;;;;;;-2.43;85.65;102643.22;5024889;28;20617;-76
2022/12/17 16:25:37;;;;;;;36.07;13.40;;;;;;;-2.44;85.89;102644.88;5018545;28;20025;-76
2022/12/17 16:28:02;;;;;;;40.00;15.67;;;;;;;-2.44;85.30;102644.00;5022434;28;20053;-76
2022/12/17 16:30:27;;;;;;;37.00;12.73;;;;;;;-2.45;85.87;102642.25;5020586;28;20045;-76
2022/12/17 16:32:57;;;;;;;39.27;14.07;;;;;;;-2.46;86.00;102645.59;5021180;28;20021;-76
2022/12/17 16:35:22;;;;;;;46.93;17.20;;;;;;;-2.45;86.38;102645.66;5019726;28;20029;-76
2022/12/17 16:37:48;;;;;;;39.70;14.73;;;;;;;-2.42;85.85;102647.53;5021787;28;20060;-76
2022/12/17 16:40:13;;;;;;;43.23;15.63;;;;;;;-2.40;85.90;102651.03;5006962;28;20162;-75
2022/12/17 16:42:38;;;;;;;37.77;14.90;;;;;;;-2.42;85.77;102652.63;5023939;28;20056;-76
2022/12/17 16:45:04;;;;;;;42.00;15.77;;;;;;;-2.43;85.62;102645.75;5023715;28;20052;-76
2022/12/17 16:47:30;;;;;;;45.93;16.30;;;;;;;-2.43;85.82;102650.84;5023657;28;20056;-77
2022/12/17 16:49:55;;;;;;;46.87;15.57;;;;;;;-2.44;85.27;102644.00;5023470;28;20065;-77
2022/12/17 16:52:20;;;;;;;42.30;15.80;;;;;;;-2.45;85.70;102640.56;5022830;28;20056;-76
2022/12/17 16:54:46;;;;;;;38.37;14.63;;;;;;;-2.47;85.51;102633.63;5023516;28;20063;-76
2022/12/17 16:57:11;;;;;;;42.27;15.30;;;;;;;-2.51;86.08;102636.78;5021925;28;20025;-77
2022/12/17 16:59:36;;;;;;;43.27;15.33;;;;;;;-2.51;86.24;102647.88;5022628;28;20033;-76
2022/12/17 17:02:01;;;;;;;40.80;14.70;;;;;;;-2.53;86.28;102651.09;5021095;28;20762;-75
2022/12/17 17:04:27;;;;;;;39.07;13.73;;;;;;;-2.51;85.96;102652.06;5025005;28;20040;-75
2022/12/17 17:06:54;;;;;;;40.27;15.33;;;;;;;-2.51;86.28;102652.97;5025030;28;20107;-75
2022/12/17 17:09:20;;;;;;;41.47;15.03;;;;;;;-2.53;85.53;102653.66;5026373;28;20025;-75
2022/12/17 17:11:48;;;;;;;44.07;16.20;;;;;;;-2.58;86.06;102655.94;5026838;28;20021;-75
2022/12/17 17:14:13;;;;;;;36.00;13.90;;;;;;;-2.57;85.55;102654.28;5025724;28;20033;-75
2022/12/17 17:16:38;;;;;;;39.20;14.30;;;;;;;-2.60;86.28;102655.88;5026279;28;20472;-75
2022/12/17 17:19:05;;;;;;;41.40;14.70;;;;;;;-2.63;86.64;102653.13;5026297;28;20392;-75
2022/12/17 17:21:33;;;;;;;40.93;15.07;;;;;;;-2.64;85.58;102651.38;5026302;28;20493;-75
2022/12/17 17:24:11;;;;;;;43.13;15.30;;;;;;;-2.69;86.07;102654.44;5024072;28;20056;-75
2022/12/17 17:26:38;;;;;;;39.07;14.17;;;;;;;-2.70;85.67;102660.34;5025489;28;20448;-75
2022/12/17 17:29:03;;;;;;;40.03;14.00;;;;;;;-2.73;86.67;102663.56;5023292;28;20033;-75
2022/12/17 17:31:29;;;;;;;38.13;13.60;;;;;;;-2.71;86.49;102658.56;5022675;28;20024;-75
2022/12/17 17:33:54;;;;;;;36.37;13.37;;;;;;;-2.70;86.21;102657.78;5022484;28;20534;-75
2022/12/17 17:36:23;;;;;;;36.40;13.23;;;;;;;-2.67;86.14;102657.97;5025781;28;20053;-75
2022/12/17 17:38:50;;;;;;;36.80;14.17;;;;;;;-2.68;86.56;102662.16;5022650;28;20029;-76
2022/12/17 17:41:18;;;;;;;43.27;15.43;;;;;;;-2.68;85.70;102667.25;5022165;28;20108;-76
2022/12/17 17:43:44;;;;;;;42.33;15.07;;;;;;;-2.70;86.11;102665.44;5020781;28;20026;-76
2022/12/17 17:46:15;;;;;;;37.63;13.87;;;;;;;-2.71;86.74;102672.19;5025715;28;20116;-76
2022/12/17 17:48:42;;;;;;;40.15;14.00;;;;;;;-2.74;85.96;102679.66;5025143;28;20086;-76
2022/12/17 17:51:11;;;;;;;38.97;13.83;;;;;;;-2.81;85.59;102672.44;5026164;28;20392;-76
2022/12/17 17:53:37;;;;;;;32.67;11.60;;;;;;;-2.85;85.50;102675.59;5024518;28;20029;-76
2022/12/17 17:56:04;;;;;;;36.80;13.40;;;;;;;-2.86;86.08;102684.91;5026531;28;20041;-75
2022/12/17 17:58:30;;;;;;;35.37;13.20;;;;;;;-2.90;85.83;102678.72;5023930;28;20488;-75
2022/12/17 18:00:55;;;;;;;37.30;12.77;;;;;;;-2.91;86.00;102681.19;5025179;28;20034;-76
2022/12/17 18:03:20;;;;;;;37.40;14.03;;;;;;;-2.91;86.03;102668.47;5023814;28;20037;-76
2022/12/17 18:05:46;;;;;;;42.17;15.50;;;;;;;-2.93;86.34;102675.13;5025324;28;20036;-76
2022/12/17 18:08:11;;;;;;;36.37;13.07;;;;;;;-2.90;86.38;102677.88;5025710;28;20037;-76
2022/12/17 18:10:36;;;;;;;35.93;13.80;;;;;;;-2.92;85.80;102672.69;5007678;28;20041;-76
2022/12/17 18:15:45;;;;;;;42.27;15.90;;;;;;;-2.97;86.03;102689.34;5025411;28;20464;-75
2022/12/17 18:18:11;;;;;;;40.77;13.60;;;;;;;-2.98;85.91;102681.59;5024846;28;20052;-76
2022/12/17 18:20:36;;;;;;;40.10;14.60;;;;;;;-2.97;85.98;102683.38;5025918;28;20076;-76
2022/12/17 18:23:01;;;;;;;42.27;15.13;;;;;;;-2.97;85.60;102697.00;5025056;28;20037;-76
2022/12/17 18:25:26;;;;;;;32.60;13.10;;;;;;;-2.97;85.54;102697.00;5024354;28;20056;-75
2022/12/17 18:27:52;;;;;;;35.23;12.77;;;;;;;-3.01;86.10;102695.03;5024585;28;20129;-76
2022/12/17 18:30:18;;;;;;;37.03;12.80;;;;;;;-3.02;86.42;102698.38;5023091;28;20063;-76
2022/12/17 18:32:47;;;;;;;37.73;14.13;;;;;;;-3.05;85.63;102698.19;5023494;28;20081;-76
2022/12/17 18:35:12;;;;;;;36.27;13.30;;;;;;;-3.08;85.96;102693.81;5022403;28;20494;-76
2022/12/17 18:37:37;;;;;;;39.80;14.03;;;;;;;-3.12;85.22;102699.50;5024260;28;20516;-77
2022/12/17 18:40:04;;;;;;;34.53;12.80;;;;;;;-3.15;85.67;102703.53;5022205;28;20095;-78
2022/12/17 18:45:13;;;;;;;33.57;13.47;;;;;;;-3.24;85.52;102680.94;5023534;28;20095;-78
2022/12/17 18:47:38;;;;;;;39.77;14.43;;;;;;;-3.28;85.48;102684.97;5022689;28;20053;-79
2022/12/17 18:50:04;;;;;;;36.27;12.03;;;;;;;-3.29;85.42;102683.19;5022902;28;20033;-79
2022/12/17 18:52:30;;;;;;;35.37;13.43;;;;;;;-3.26;85.96;102687.59;5025751;28;20071;-78
2022/12/17 18:54:55;;;;;;;37.10;13.47;;;;;;;-3.28;85.88;102695.16;5024506;28;20055;-78
2022/12/17 18:57:20;;;;;;;36.63;13.53;;;;;;;-3.33;85.84;102695.66;5009279;28;20108;-79
2022/12/17 18:59:45;;;;;;;39.67;13.60;;;;;;;-3.38;85.83;102697.91;5023391;28;21303;-79
2022/12/17 19:02:12;;;;;;;33.00;12.70;;;;;;;-3.43;86.21;102692.53;5024186;28;20083;-78
2022/12/17 19:04:37;;;;;;;37.90;12.80;;;;;;;-3.46;85.37;102694.00;5023882;28;20075;-78
2022/12/17 19:07:03;;;;;;;36.27;13.77;;;;;;;-3.49;85.93;102693.81;5025154;28;20435;-78
2022/12/17 19:09:34;;;;;;;37.73;13.90;;;;;;;-3.51;85.42;102696.28;5024163;28;20032;-78
2022/12/17 19:12:00;;;;;;;41.47;15.43;;;;;;;-3.57;85.96;102700.97;5021847;28;20028;-79
2022/12/17 19:14:25;;;;;;;35.60;14.13;;;;;;;-3.57;85.36;102700.97;5023390;28;20396;-78
2022/12/17 19:16:52;;;;;;;37.67;13.87;;;;;;;-3.61;86.07;102705.00;5024647;28;20380;-78
2022/12/17 19:19:18;;;;;;;38.50;14.60;;;;;;;-3.64;85.89;102712.44;5024857;28;20021;-79
2022/12/17 19:21:44;;;;;;;43.37;14.93;;;;;;;-3.64;85.99;102714.06;5022703;28;20168;-78
2022/12/17 19:24:12;;;;;;;32.73;12.90;;;;;;;-3.63;86.18;102716.75;5024125;28;20049;-79
2022/12/17 19:26:38;;;;;;;33.70;13.03;;;;;;;-3.62;86.00;102726.13;5024566;28;20534;-79
2022/12/17 19:29:04;;;;;;;35.30;14.10;;;;;;;-3.61;85.58;102735.53;5024947;28;20057;-79
2022/12/17 19:31:31;;;;;;;36.97;14.80;;;;;;;-3.65;85.52;102725.94;5025356;28;20041;-79
2022/12/17 19:34:03;;;;;;;42.20;15.10;;;;;;;-3.65;85.53;102731.03;5026650;28;20030;-79
2022/12/17 19:36:30;;;;;;;41.20;14.80;;;;;;;-3.68;85.84;102726.63;5027363;28;20028;-78
2022/12/17 19:38:58;;;;;;;41.43;15.77;;;;;;;-3.71;85.12;102723.88;5028951;28;20033;-78
2022/12/17 19:41:25;;;;;;;45.47;16.93;;;;;;;-3.79;85.33;102719.09;5028083;28;20032;-78
2022/12/17 19:43:55;;;;;;;44.60;16.20;;;;;;;-3.81;85.49;102722.41;5028003;28;20046;-78
2022/12/17 19:46:22;;;;;;;42.90;16.13;;;;;;;-3.80;86.08;102725.81;5025449;28;20025;-79
2022/12/17 19:48:48;;;;;;;38.93;14.57;;;;;;;-3.79;86.32;102730.13;5026399;28;20029;-79
2022/12/17 19:51:16;;;;;;;38.37;14.23;;;;;;;-3.77;86.01;102727.72;5022892;28;20033;-78
2022/12/17 19:53:42;;;;;;;45.60;15.40;;;;;;;-3.78;85.99;102729.34;5022837;28;20104;-78
2022/12/17 19:56:21;;;;;;;41.63;15.27;;;;;;;-3.76;85.51;102725.25;5023603;28;20036;-78
2022/12/17 19:58:51;;;;;;;37.27;13.80;;;;;;;-3.76;85.83;102726.94;5024348;28;20086;-78
2022/12/17 20:01:24;;;;;;;44.07;15.70;;;;;;;-3.83;85.87;102729.06;5021650;28;20100;-78
2022/12/17 20:03:50;;;;;;;36.43;13.53;;;;;;;-3.79;85.75;102739.44;5023993;28;20056;-78
2022/12/17 20:06:18;;;;;;;39.93;14.30;;;;;;;-3.81;85.92;102737.69;5024353;28;20507;-78
2022/12/17 20:08:44;;;;;;;38.43;14.50;;;;;;;-3.78;86.08;102741.19;5024386;28;20691;-78
2022/12/17 20:13:57;;;;;;;46.87;17.87;;;;;;;-3.74;86.00;102741.50;5024260;28;20295;-78
2022/12/17 20:16:22;;;;;;;44.83;16.23;;;;;;;-3.74;85.70;102740.59;5027052;28;20033;-78
2022/12/17 20:18:48;;;;;;;41.97;15.93;;;;;;;-3.77;86.30;102737.88;5027122;28;20033;-78
2022/12/17 20:21:13;;;;;;;40.13;15.27;;;;;;;-3.75;86.04;102741.38;5027317;28;20103;-78
2022/12/17 20:23:39;;;;;;;46.67;16.03;;;;;;;-3.75;85.92;102749.00;5027442;28;20111;-79
2022/12/17 20:26:07;;;;;;;43.40;15.40;;;;;;;-3.74;86.14;102753.31;5021326;28;20504;-78
2022/12/17 20:28:33;;;;;;;43.23;15.67;;;;;;;-3.74;85.84;102758.41;5023849;28;20029;-78
2022/12/17 20:30:59;;;;;;;41.27;14.37;;;;;;;-3.73;86.39;102765.25;5022355;28;20045;-80
2022/12/17 20:33:25;;;;;;;38.70;14.10;;;;;;;-3.73;86.15;102770.34;5023105;28;20025;-79
2022/12/17 20:35:50;;;;;;;42.67;15.63;;;;;;;-3.72;86.34;102761.91;5024113;28;20395;-77
2022/12/17 20:38:15;;;;;;;42.17;15.77;;;;;;;-3.72;86.36;102759.38;5024178;28;20086;-78
2022/12/17 20:40:41;;;;;;;47.63;16.43;;;;;;;-3.72;86.25;102757.72;5024648;28;20045;-78
2022/12/17 20:43:07;;;;;;;46.33;17.07;;;;;;;-3.72;86.21;102747.56;5024452;28;20032;-78
2022/12/17 20:45:33;;;;;;;43.23;15.20;;;;;;;-3.73;86.03;102749.97;5024981;28;20089;-78
2022/12/17 20:47:58;;;;;;;46.57;16.87;;;;;;;-3.76;85.72;102745.59;5023738;28;20181;-78
2022/12/17 20:50:24;;;;;;;44.40;16.00;;;;;;;-3.76;85.69;102747.28;5022456;28;20495;-78
2022/12/17 20:52:49;;;;;;;48.17;16.40;;;;;;;-3.81;85.61;102735.13;5024178;28;20168;-78
2022/12/17 20:55:15;;;;;;;52.13;17.77;;;;;;;-3.79;86.07;102734.34;5024319;28;20029;-78
2022/12/17 20:57:41;;;;;;;44.90;14.83;;;;;;;-3.81;85.65;102730.03;5025706;28;20025;-79
2022/12/17 21:00:07;;;;;;;46.47;16.33;;;;;;;-3.82;85.42;102720.66;5025181;28;20076;-79
2022/12/17 21:02:33;;;;;;;40.80;15.47;;;;;;;-3.83;85.92;102726.53;5022032;28;20029;-80
2022/12/17 21:04:58;;;;;;;36.37;13.60;;;;;;;-3.82;85.70;102724.84;5024268;28;20153;-78
2022/12/17 21:07:23;;;;;;;38.43;14.17;;;;;;;-3.81;85.34;102727.50;5022592;28;20538;-77
2022/12/17 21:09:48;;;;;;;43.53;15.43;;;;;;;-3.81;85.54;102732.59;5022901;28;20064;-78
2022/12/17 21:12:14;;;;;;;40.47;14.57;;;;;;;-3.87;85.84;102729.63;5023503;28;20135;-78
2022/12/17 21:14:39;;;;;;;45.90;15.40;;;;;;;-3.89;85.79;102736.28;5023535;28;20038;-79
2022/12/17 21:17:04;;;;;;;48.63;17.40;;;;;;;-3.88;85.35;102734.66;5024207;28;20082;-78
2022/12/17 21:19:30;;;;;;;46.60;16.53;;;;;;;-3.91;85.54;102735.31;5025776;28;20441;-78
2022/12/17 21:21:55;;;;;;;41.27;15.33;;;;;;;-3.91;85.66;102730.22;5025568;28;20076;-78
2022/12/17 21:24:20;;;;;;;44.97;15.47;;;;;;;-3.92;85.70;102733.53;5025861;28;20377;-78
2022/12/17 21:26:46;;;;;;;44.80;16.63;;;;;;;-3.94;85.80;102735.13;5025952;28;20072;-79
2022/12/17 21:29:13;;;;;;;47.70;17.87;;;;;;;-3.94;85.75;102744.41;5025156;28;20061;-78
2022/12/17 21:31:42;;;;;;;42.17;15.80;;;;;;;-3.96;85.79;102746.88;5025845;28;20388;-79
2022/12/17 21:34:14;;;;;;;41.73;15.40;;;;;;;-3.97;85.58;102751.06;5026275;28;20694;-79
2022/12/17 21:36:39;;;;;;;46.65;16.98;;;;;;;-3.99;85.38;102751.75;5024787;28;20399;-78
2022/12/17 21:39:07;;;;;;;45.70;14.80;;;;;;;-3.99;85.33;102769.53;5022569;28;20477;-78
2022/12/17 21:41:34;;;;;;;44.33;15.83;;;;;;;-4.03;85.30;102768.47;5024731;28;20030;-77
2022/12/17 21:44:03;;;;;;;47.00;16.90;;;;;;;-4.07;85.39;102778.31;5025870;28;20058;-78
2022/12/17 21:46:29;;;;;;;40.33;15.47;;;;;;;-4.11;85.30;102769.59;5024696;28;20053;-78
2022/12/17 21:48:56;;;;;;;38.33;14.43;;;;;;;-4.10;85.44;102773.06;5022702;28;20033;-78
2022/12/17 21:51:22;;;;;;;36.47;14.67;;;;;;;-4.13;85.53;102766.97;5022176;28;20032;-78
2022/12/17 21:53:54;;;;;;;37.50;13.90;;;;;;;-4.16;85.65;102769.31;5022628;28;20537;-78
2022/12/17 21:56:20;;;;;;;37.43;14.63;;;;;;;-4.15;85.50;102766.00;5023370;28;20045;-78
2022/12/17 21:58:46;;;;;;;39.17;14.23;;;;;;;-4.14;85.59;102774.50;5024076;28;20026;-78
2022/12/17 22:01:18;;;;;;;39.57;14.67;;;;;;;-4.17;85.64;102770.09;5023155;28;20550;-78
2022/12/17 22:03:44;;;;;;;;;;;;;;;-4.16;85.47;102774.41;5022925;28;20376;-79
2022/12/17 22:06:12;;;;;;;39.77;14.77;;;;;;;-4.21;85.41;102780.81;5023047;28;19921;-79
2022/12/17 22:08:38;;;;;;;37.60;14.13;;;;;;;-4.24;84.94;102772.13;5022391;28;20041;-79
2022/12/17 22:11:18;;;;;;;38.23;13.77;;;;;;;-4.29;84.90;102780.31;5022919;28;20029;-79
2022/12/17 22:14:04;;;;;;;37.67;13.53;;;;;;;-4.30;84.98;102785.31;5021087;28;20421;-77
2022/12/17 22:16:41;;;;;;;39.50;14.63;;;;;;;-4.32;84.81;102784.31;5022137;28;20094;-78
2022/12/17 22:19:09;;;;;;;41.80;14.63;;;;;;;-4.34;84.96;102788.41;5024693;28;20392;-78
2022/12/17 22:21:36;;;;;;;37.23;14.70;;;;;;;-4.36;84.75;102783.25;5025080;28;20033;-79
2022/12/17 22:24:02;;;;;;;40.53;14.90;;;;;;;-4.40;85.06;102778.72;5021380;28;20476;-79
2022/12/17 22:26:27;;;;;;;35.83;13.63;;;;;;;-4.44;84.98;102782.69;5022417;28;20045;-78
2022/12/17 22:28:53;;;;;;;36.20;14.20;;;;;;;-4.47;85.01;102776.53;5022655;28;20035;-78
2022/12/17 22:34:05;;;;;;;37.03;13.53;;;;;;;-4.54;85.19;102782.88;5023584;28;20052;-79
2022/12/17 22:36:32;;;;;;;29.83;12.03;;;;;;;-4.56;85.14;102776.81;5023664;28;20028;-78
2022/12/17 22:38:59;;;;;;;34.33;13.60;;;;;;;-4.58;84.90;102778.34;5024401;28;20128;-79
2022/12/17 22:44:08;;;;;;;29.83;12.47;;;;;;;-4.68;84.64;102783.59;5026016;28;20043;-78
2022/12/17 22:46:33;;;;;;;32.27;12.57;;;;;;;-4.72;84.57;102785.91;5025840;28;20021;-77
2022/12/17 22:48:59;;;;;;;32.63;12.37;;;;;;;-4.79;84.72;102778.69;5026043;28;20025;-77
2022/12/17 22:51:24;;;;;;;35.77;13.13;;;;;;;-4.83;84.51;102780.88;5025658;28;20107;-76
2022/12/17 22:53:51;;;;;;;35.93;12.53;;;;;;;-4.88;84.72;102776.38;5025780;28;20412;-76
2022/12/17 22:56:17;;;;;;;32.23;12.30;;;;;;;-4.91;84.65;102775.28;5025659;28;20112;-77
2022/12/17 22:58:42;;;;;;;34.37;12.93;;;;;;;-4.95;84.13;102775.84;5025602;28;20144;-76
2022/12/17 23:01:07;;;;;;;31.47;13.00;;;;;;;-5.00;84.44;102779.72;5025822;28;20884;-77
2022/12/17 23:03:33;;;;;;;37.67;13.60;;;;;;;-5.05;84.34;102784.50;5029229;28;20030;-77
2022/12/17 23:06:13;;;;;;;34.37;12.57;;;;;;;-5.09;84.31;102788.44;5029145;28;20101;-76
2022/12/17 23:08:38;;;;;;;36.27;13.77;;;;;;;-5.16;84.53;102781.19;5029162;28;20037;-77
2022/12/17 23:11:12;;;;;;;33.00;12.90;;;;;;;-5.22;84.29;102783.28;5029013;28;20174;-77
2022/12/17 23:13:38;;;;;;;32.67;11.87;;;;;;;-5.22;84.42;102785.81;5029655;28;20388;-77
2022/12/17 23:16:04;;;;;;;32.73;13.03;;;;;;;-5.26;84.48;102783.84;5029631;28;20362;-77
2022/12/17 23:18:30;;;;;;;36.77;13.70;;;;;;;-5.30;84.52;102780.22;5028628;28;20033;-77
2022/12/17 23:20:55;;;;;;;33.63;13.07;;;;;;;-5.34;84.42;102770.63;5030034;28;20529;-77
2022/12/17 23:23:21;;;;;;;34.17;13.13;;;;;;;-5.38;84.49;102773.72;5030182;28;20132;-77
2022/12/17 23:25:47;;;;;;;35.90;13.43;;;;;;;-5.44;84.63;102765.69;5028347;28;20071;-77
2022/12/17 23:28:12;;;;;;;38.20;15.10;;;;;;;-5.47;84.19;102766.34;5029447;28;20141;-77
2022/12/17 23:30:37;;;;;;;32.30;12.10;;;;;;;-5.51;84.23;102766.91;5029427;28;20061;-77
2022/12/17 23:33:03;;;;;;;34.83;12.90;;;;;;;-5.53;84.50;102779.44;5029910;28;20021;-77
2022/12/17 23:35:29;;;;;;;36.23;14.60;;;;;;;-5.56;83.83;102778.34;5027906;28;20108;-77
2022/12/17 23:37:54;;;;;;;35.23;13.13;;;;;;;-5.57;84.20;102777.50;5009500;28;20468;-77
2022/12/17 23:40:20;;;;;;;34.90;13.50;;;;;;;-5.58;84.29;102779.91;5028699;28;20025;-76
2022/12/17 23:42:45;;;;;;;38.03;14.43;;;;;;;-5.61;84.69;102769.53;5029123;28;20080;-77
2022/12/17 23:45:10;;;;;;;34.70;12.80;;;;;;;-5.63;84.26;102772.84;5028586;28;20118;-77
2022/12/17 23:47:36;;;;;;;40.13;14.37;;;;;;;-5.64;84.05;102771.06;5028669;28;20106;-77
2022/12/17 23:50:02;;;;;;;36.53;14.23;;;;;;;-5.67;84.31;102770.88;5028424;28;20124;-76
2022/12/17 23:52:27;;;;;;;40.03;13.97;;;;;;;-5.69;84.63;102772.41;5029208;28;20289;-77
2022/12/17 23:54:53;;;;;;;42.40;14.47;;;;;;;-5.73;84.40;102774.63;5029152;28;20041;-77
2022/12/17 23:57:18;;;;;;;32.93;12.50;;;;;;;-5.74;84.52;102768.66;5028546;28;20037;-77
2022/12/17 23:59:44;;;;;;;34.00;12.77;;;;;;;-5.73;84.38;102764.47;5028226;28;20036;-77
